• Join FlightAware (Why Join?)
  • Login
  • US Flag 
12:17AM EDT


 

Airport Tracker/Info


-or-


 

Live Flight TrackerFlight Track Log ✈ N442ND ✈ 21-Aug-2013 ✈ KFPR - KFPR

Flight Track Log - Related Links

Times and Time Zones

All times are in EDT time to prevent confusion due to time zone crossing. See the N442ND flight status page for this flight to view local times or setup timezone preferences in your user account.

Time Position Orientation Groundspeed Altitude Reporting Facility
EDT Latitude Longitude Course Direction KTS MPH feet Rate Location/Type
07:34AM 27.4981 -80.3594 170° South 90 104 4,000  Level Miami Center
07:35AM 27.4986 -80.3358 88° East 69 79 1,000 -1,260 Descending Miami Center
07:36AM 27.4992 -80.3172 88° East 63 72 1,500 420 Climbing Miami Center
07:37AM 27.5017 -80.2986 81° East 68 78 1,900 420 Climbing Miami Center
07:38AM 27.4964 -80.3724 170° South  Level FlightAware Approximate
07:38AM 27.5022 -80.2728 89° East 68 78 2,400  Level Miami Center
07:39AM 27.4962 -80.3724 170° South  Level FlightAware Approximate
07:39AM 27.5028 -80.2517 88° East 68 78 2,800  Level Miami Center
07:40AM 27.5033 -80.2331 88° East 68 78 3,200 360 Climbing Miami Center
07:41AM 27.5242 -80.2336 359° North 50 58 3,600 300 Climbing Miami Center
07:42AM 27.5381 -80.2575 303° West 84 97 3,900 180 Climbing Miami Center
07:43AM 27.5603 -80.2908 307° West 117 135 4,000  Climbing Miami Center
07:44AM 27.5783 -80.3219 303° West 123 142 4,000  Level Miami Center
07:45AM 27.5983 -80.3578 302° West 123 142 4,000  Level Miami Center
07:46AM 27.6186 -80.3911 304° West 123 142 4,000  Level Miami Center
07:47AM 27.6386 -80.4197 308° West 123 142 4,000  Level Miami Center
07:48AM 27.6544 -80.4556 297° West 123 142 4,000  Level Miami Center
07:49AM 27.6725 -80.4842 305° West 123 142 4,000 -60 Level Miami Center
07:50AM 27.6864 -80.5175 295° West 123 142 3,900 -60 Descending Miami Center
07:51AM 27.7042 -80.5508 301° West 118 136 3,900  Level Miami Center
07:52AM 27.6917 -80.5506 179° South 32 37 4,000  Climbing Miami Center
07:53AM 27.6861 -80.5269 105° East 49 56 4,000  Level Miami Center
07:54AM 27.6806 -80.5033 105° East 74 85 4,000 -60 Level Miami Center
07:55AM 27.6617 -80.4981 166° South 65 75 3,900  Descending Miami Center
07:56AM 27.6442 -80.5325 240° Southwest 92 106 4,000  Climbing Miami Center
07:57AM 27.6267 -80.5625 237° Southwest 117 135 4,000 -240 Level Miami Center
07:58AM 27.6114 -80.5853 233° Southwest 124 143 3,600 -480 Descending Miami Center
07:59AM 27.6256 -80.6117 301° West 103 119 3,100 -300 Descending Miami Center
08:00AM 27.6586 -80.6197 348° North 103 119 3,000 -240 Descending Miami Center
08:01AM 27.6897 -80.6231 355° North 109 125 2,700 -480 Descending Miami Center
08:02AM 27.7175 -80.6075 26° Northeast 102 117 2,100 -480 Descending Miami Center
08:03AM 27.7097 -80.5839 110° East 70 81 1,800 -300 Descending Miami Center
08:04AM 27.7039 -80.5603 106° East 76 87 1,600 -300 Descending Miami Center
08:05AM 27.6961 -80.5389 112° Southeast 76 87 1,300 -180 Descending Miami Center
08:06AM 27.6864 -80.5153 115° Southeast 76 87 1,300  Level Miami Center
08:07AM 27.6808 -80.4917 105° East 76 87 1,400 -180 Climbing Miami Center
08:08AM 27.6728 -80.4725 115° Southeast 71 82 1,000 -480 Descending Miami Center
08:09AM 27.6631 -80.4464 113° Southeast 71 82 500 -180 Descending Miami Center
08:10AM 27.6572 -80.4253 107° East 71 82 700 420 Climbing Miami Center
08:11AM 27.6536 -80.4017 100° East 71 82 1,400 600 Climbing Miami Center
08:12AM 27.6500 -80.3803 101° East 66 76 1,900 420 Climbing Miami Center
08:13AM 27.6400 -80.3706 139° Southeast 66 76 2,300 420 Climbing Miami Center
08:14AM 27.6167 -80.3794 199° South 74 85 2,800 360 Climbing Miami Center
08:15AM 27.5956 -80.3881 200° South 88 101 3,100 120 Climbing Miami Center
08:16AM 27.5783 -80.4108 230° Southwest 98 113 3,100  Level Miami Center
08:17AM 27.5714 -80.4436 257° West 109 125 3,100  Level Miami Center
08:18AM 27.5642 -80.4786 257° West 119 137 3,100  Level Miami Center
08:19AM 27.5547 -80.5156 254° West 119 137 3,100  Level Miami Center
08:20AM 27.5456 -80.5506 254° West 125 144 3,100  Level Miami Center
08:21AM 27.5225 -80.5614 203° Southwest 100 115 3,100 -120 Level Miami Center
08:22AM 27.5058 -80.5492 147° Southeast 81 93 2,900 -300 Descending Miami Center
08:23AM 27.4983 -80.5256 110° East 75 86 2,500 -480 Descending Miami Center
08:24AM 27.4989 -80.4975 89° East 83 96 2,000 -480 Descending Miami Center
08:25AM 27.4997 -80.4717 88° East 83 96 1,600 -420 Descending Miami Center
08:26AM 27.4981 -80.4483 95° East 83 96 1,200 -360 Descending Miami Center
08:27AM 27.4986 -80.4294 88° East 76 87 900 -360 Descending Miami Center
08:28AM 27.4969 -80.4061 95° East 66 76 500 -240 Descending Miami Center
08:29AM 27.4978 -80.3803 88° East 66 76 500 240 Level Miami Center
08:30AM 27.4747 -80.3844 189° South 59 68 1,000 480 Climbing Miami Center
08:31AM 27.4536 -80.3861 184° South 86 99 1,500 480 Climbing Miami Center
08:32AM 27.4306 -80.3925 194° South 86 99 2,000 480 Climbing Miami Center